createdAt,value
2023-04-03T00:07:02.537Z,21.58
2023-04-03T00:15:29.111Z,21.44
2023-04-03T00:24:24.022Z,21.47
2023-04-03T00:28:20.757Z,21.49
2023-04-03T00:32:04.459Z,21.51
2023-04-03T00:49:03.737Z,21.19
2023-04-03T00:53:20.262Z,21.29
2023-04-03T00:57:00.764Z,21.38
2023-04-03T01:12:58.523Z,21.47
2023-04-03T01:21:53.722Z,21.46
2023-04-03T01:25:53.968Z,21.47
2023-04-03T01:29:48.478Z,21.46
2023-04-03T01:33:42.702Z,21.44
2023-04-03T01:37:42.862Z,21.44
2023-04-03T01:54:45.431Z,21.31
2023-04-03T02:02:02.919Z,21.27
2023-04-03T02:05:42.421Z,21.15
2023-04-03T02:09:22.078Z,21.18
2023-04-03T02:12:44.477Z,21.18
2023-04-03T02:16:22.292Z,21.17
2023-04-03T02:20:16.696Z,21.16
2023-04-03T02:23:42.233Z,21.13
2023-04-03T02:27:03.913Z,21.13
2023-04-03T02:40:29.835Z,21.03
2023-04-03T02:44:51.665Z,21.01
2023-04-03T02:49:12.217Z,21.01
2023-04-03T02:52:52.482Z,20.98
2023-04-03T02:58:15.512Z,20.95
2023-04-03T03:06:35.980Z,20.83
2023-04-03T03:10:11.774Z,20.80
2023-04-03T03:14:18.014Z,20.82
2023-04-03T03:23:14.280Z,20.81
2023-04-03T03:31:33.334Z,20.76
2023-04-03T03:35:09.607Z,20.75
2023-04-03T03:39:13.460Z,20.74
2023-04-03T03:43:08.829Z,20.72
2023-04-03T03:46:59.623Z,20.71
2023-04-03T03:50:41.272Z,20.70
2023-04-03T03:54:03.010Z,20.67
2023-04-03T03:57:24.853Z,20.68
2023-04-03T04:00:47.356Z,20.68
2023-04-03T04:04:29.726Z,20.67
2023-04-03T04:07:57.701Z,20.65
2023-04-03T04:11:21.836Z,20.64
2023-04-03T04:14:54.268Z,20.63
2023-04-03T04:18:23.653Z,20.63
2023-04-03T04:25:34.266Z,20.61
2023-04-03T04:29:04.038Z,20.62
2023-04-03T04:32:33.886Z,20.61
2023-04-03T04:36:06.953Z,20.63
2023-04-03T04:39:43.428Z,20.64
2023-04-03T04:44:20.102Z,20.64
2023-04-03T04:47:38.706Z,20.59
2023-04-03T04:55:42.144Z,20.58
2023-04-03T04:59:14.190Z,20.61
2023-04-03T05:03:15.591Z,20.66
2023-04-03T05:07:13.988Z,20.69
2023-04-03T05:11:07.690Z,20.74
2023-04-03T05:34:31.486Z,20.91
2023-04-03T05:46:27.074Z,21.04
2023-04-03T05:49:51.510Z,21.07
2023-04-03T06:03:27.763Z,21.17
2023-04-03T06:08:04.139Z,21.21
2023-04-03T06:11:56.859Z,21.25
2023-04-03T06:15:58.838Z,21.34
2023-04-03T06:19:31.143Z,21.43
2023-04-03T06:26:47.487Z,21.54
2023-04-03T06:30:23.254Z,21.58
2023-04-03T06:33:47.865Z,21.62
2023-04-03T06:37:36.315Z,21.69
2023-04-03T06:40:58.069Z,21.76
2023-04-03T06:44:19.723Z,21.87
2023-04-03T06:47:44.753Z,21.94
2023-04-03T06:55:32.788Z,22.04
2023-04-03T07:06:31.774Z,28.71
2023-04-03T07:10:00.018Z,32.02
2023-04-03T07:27:17.039Z,41.82
2023-04-03T07:40:28.923Z,46.11
2023-04-03T07:45:07.746Z,46.99
2023-04-03T08:13:02.639Z,45.76
2023-04-03T08:16:55.597Z,44.00
2023-04-03T09:11:40.398Z,44.37
2023-04-03T09:34:38.392Z,40.62
2023-04-03T09:38:30.412Z,39.14
2023-04-03T09:42:02.577Z,39.30
2023-04-03T09:45:47.315Z,40.40
2023-04-03T09:50:10.683Z,40.83
2023-04-03T09:54:24.896Z,41.55
2023-04-03T10:07:28.790Z,41.79
2023-04-03T10:52:03.970Z,38.96
2023-04-03T11:00:12.629Z,38.35
2023-04-03T11:28:18.321Z,32.97
2023-04-03T11:36:01.197Z,31.70
2023-04-03T11:39:41.543Z,31.06
2023-04-03T11:43:20.447Z,31.65
2023-04-03T11:47:13.313Z,32.13
2023-04-03T11:50:45.582Z,32.04
2023-04-03T11:54:44.898Z,32.38
2023-04-03T11:58:21.352Z,32.66
2023-04-03T12:02:03.275Z,31.93
2023-04-03T12:09:26.271Z,30.25
2023-04-03T12:13:37.532Z,29.91
2023-04-03T12:17:53.022Z,30.36
2023-04-03T12:22:00.174Z,30.72
2023-04-03T12:26:06.476Z,30.84
2023-04-03T12:29:53.807Z,30.99
2023-04-03T12:52:38.837Z,29.49
2023-04-03T12:57:00.339Z,28.68
2023-04-03T13:01:11.804Z,28.51
2023-04-03T13:08:21.740Z,28.83
2023-04-03T13:20:08.655Z,27.62
2023-04-03T14:10:15.103Z,25.73
2023-04-03T14:19:23.801Z,25.20
2023-04-03T14:23:54.959Z,24.96
2023-04-03T14:27:31.800Z,25.08
2023-04-03T14:31:01.636Z,25.39
2023-04-03T14:34:23.538Z,25.67
2023-04-03T14:37:46.458Z,25.90
2023-04-03T14:41:28.693Z,26.10
2023-04-03T14:44:53.427Z,26.28
2023-04-03T14:48:29.771Z,26.38
2023-04-03T14:51:53.809Z,26.42
2023-04-03T14:55:28.824Z,26.41
2023-04-03T14:59:00.556Z,26.37
2023-04-03T15:02:37.668Z,26.33
2023-04-03T15:06:17.251Z,26.31
2023-04-03T15:09:43.641Z,26.33
2023-04-03T15:13:13.010Z,26.24
2023-04-03T15:16:45.496Z,26.31
2023-04-03T15:20:22.204Z,26.30
2023-04-03T15:23:44.030Z,26.26
2023-04-03T15:27:25.906Z,26.15
2023-04-03T15:30:54.891Z,25.99
2023-04-03T15:34:36.850Z,25.98
2023-04-03T15:38:03.400Z,26.02
2023-04-03T15:42:12.932Z,26.06
2023-04-03T15:45:55.198Z,26.08
2023-04-03T15:49:32.807Z,26.11
2023-04-03T15:53:08.024Z,26.12
2023-04-03T15:56:58.692Z,26.09
2023-04-03T16:00:27.696Z,26.07
2023-04-03T16:04:38.924Z,26.04
2023-04-03T16:08:17.539Z,25.99
2023-04-03T16:11:48.347Z,25.95
2023-04-03T16:15:43.939Z,25.93
2023-04-03T16:19:10.583Z,25.87
2023-04-03T16:22:35.500Z,25.84
2023-04-03T16:26:20.489Z,25.80
2023-04-03T16:29:53.034Z,25.73
2023-04-03T16:33:14.788Z,25.71
2023-04-03T16:36:43.817Z,25.70
2023-04-03T16:40:14.832Z,25.75
2023-04-03T16:43:38.058Z,25.76
2023-04-03T16:47:03.758Z,25.76
2023-04-03T16:50:34.015Z,25.73
2023-04-03T16:53:56.028Z,25.69
2023-04-03T16:57:29.171Z,25.66
2023-04-03T17:01:03.244Z,25.59
2023-04-03T17:04:28.587Z,25.53
2023-04-03T17:07:54.828Z,25.49
2023-04-03T17:11:32.045Z,25.45
2023-04-03T17:14:53.772Z,25.39
2023-04-03T17:18:15.966Z,25.34
2023-04-03T17:21:37.687Z,25.28
2023-04-03T17:25:02.422Z,25.24
2023-04-03T17:28:28.904Z,25.21
2023-04-03T17:31:51.104Z,25.17
2023-04-03T17:35:15.512Z,25.13
2023-04-03T17:38:40.205Z,25.13
2023-04-03T17:42:07.542Z,25.15
2023-04-03T17:45:29.236Z,25.15
2023-04-03T17:49:03.570Z,25.14
2023-04-03T17:52:34.436Z,25.11
2023-04-03T17:55:58.886Z,25.07
2023-04-03T17:59:32.162Z,25.03
2023-04-03T18:03:07.053Z,25.00
2023-04-03T18:06:54.216Z,24.96
2023-04-03T18:10:16.877Z,24.89
2023-04-03T18:17:24.619Z,24.81
2023-04-03T18:20:51.269Z,24.78
2023-04-03T18:24:35.317Z,24.75
2023-04-03T18:27:59.047Z,24.71
2023-04-03T18:31:23.747Z,24.69
2023-04-03T18:34:55.117Z,24.66
2023-04-03T18:38:27.456Z,24.63
2023-04-03T18:41:54.966Z,24.59
2023-04-03T18:45:19.372Z,24.56
2023-04-03T18:48:43.250Z,24.52
2023-04-03T18:55:58.766Z,24.45
2023-04-03T18:59:30.389Z,24.44
2023-04-03T19:02:57.566Z,24.41
2023-04-03T19:06:22.216Z,24.39
2023-04-03T19:09:43.969Z,24.37
2023-04-03T19:13:08.136Z,24.34
2023-04-03T19:16:29.906Z,24.31
2023-04-03T19:19:59.196Z,24.29
2023-04-03T19:23:21.099Z,24.25
2023-04-03T19:34:19.505Z,24.15
2023-04-03T19:38:00.424Z,24.03
2023-04-03T19:41:24.437Z,24.07
2023-04-03T19:44:59.833Z,24.07
2023-04-03T19:48:25.381Z,24.06
2023-04-03T19:51:49.343Z,24.05
2023-04-03T19:55:43.596Z,24.03
2023-04-03T19:59:19.968Z,23.99
2023-04-03T20:02:43.777Z,23.99
2023-04-03T20:06:25.957Z,23.98
2023-04-03T20:10:46.232Z,23.94
2023-04-03T20:14:23.800Z,23.90
2023-04-03T20:17:49.526Z,23.89
2023-04-03T20:21:19.937Z,23.88
2023-04-03T20:24:43.111Z,23.87
2023-04-03T20:28:05.625Z,23.85
2023-04-03T20:31:31.241Z,23.84
2023-04-03T20:35:03.279Z,23.81
2023-04-03T20:38:27.682Z,23.79
2023-04-03T20:41:51.815Z,23.77
2023-04-03T20:45:14.302Z,23.76
2023-04-03T20:48:41.890Z,23.73
2023-04-03T20:52:04.889Z,23.71
2023-04-03T20:55:39.730Z,23.69
2023-04-03T20:59:09.917Z,23.66
2023-04-03T21:02:37.283Z,23.64
2023-04-03T21:06:00.519Z,23.61
2023-04-03T21:10:02.731Z,23.59
2023-04-03T21:14:05.256Z,23.54
2023-04-03T21:17:35.921Z,23.50
2023-04-03T21:21:04.910Z,23.48
2023-04-03T21:24:26.906Z,23.47
2023-04-03T21:27:49.803Z,23.45
2023-04-03T21:31:17.793Z,23.43
2023-04-03T21:34:39.763Z,23.41
2023-04-03T21:41:51.959Z,23.35
2023-04-03T21:45:23.803Z,23.34
2023-04-03T21:48:59.891Z,23.32
2023-04-03T21:52:29.913Z,23.29
2023-04-03T21:56:16.201Z,23.28
2023-04-03T21:59:46.783Z,23.24
2023-04-03T22:03:32.603Z,23.23
2023-04-03T22:07:01.153Z,23.21
2023-04-03T22:10:36.682Z,23.20
2023-04-03T22:14:08.436Z,23.18
2023-04-03T22:17:35.250Z,23.16
2023-04-03T22:21:02.501Z,23.13
2023-04-03T22:24:30.988Z,23.12
2023-04-03T22:28:08.971Z,23.09
2023-04-03T22:31:50.648Z,23.06
2023-04-03T22:35:24.160Z,23.02
2023-04-03T22:38:48.774Z,23.01
2023-04-03T22:42:18.082Z,22.99
2023-04-03T22:46:28.235Z,22.98
2023-04-03T22:49:54.521Z,22.92
2023-04-03T22:53:22.012Z,22.91
2023-04-03T22:56:46.540Z,22.90
2023-04-03T23:00:24.681Z,22.88
2023-04-03T23:03:46.804Z,22.86
2023-04-03T23:07:36.443Z,22.84
2023-04-03T23:11:10.425Z,22.80
2023-04-03T23:14:37.214Z,22.78
2023-04-03T23:17:59.148Z,22.77
2023-04-03T23:21:31.755Z,22.75
2023-04-03T23:25:00.392Z,22.73
2023-04-03T23:28:26.618Z,22.70
2023-04-03T23:31:48.335Z,22.69
2023-04-03T23:35:15.066Z,22.68
2023-04-03T23:38:39.806Z,22.66
2023-04-03T23:42:03.217Z,22.65
2023-04-03T23:45:29.225Z,22.63
2023-04-03T23:52:41.114Z,22.58
2023-04-03T23:56:12.513Z,22.55
2023-04-03T23:59:42.555Z,22.53
